Time;durP1;ratioP1;P1;durP2;ratioP2;P2;SDS_P1;SDS_P2;PMS_P1;PMS_P2;Temp;Humidity;BMP_temperature;BMP_pressure;BME280_temperature;BME280_humidity;BME280_pressure;Samples;Min_cycle;Max_cycle;Signal;HPM_P1;HPM_P2
2023/08/30 00:00:11;;;;;;;5.72;5.43;;;;;;;;;;4957756;28;20059;-69
2023/08/30 00:02:41;;;;;;;0.20;0.20;;;;;;;;;;4948188;28;20544;-68
2023/08/30 00:05:09;;;;;;;0.00;0.00;;;;;;;;;;4955786;28;20053;-68
2023/08/30 00:07:37;;;;;;;0.00;0.00;;;;;;;;;;4956614;28;20049;-69
2023/08/30 00:10:04;;;;;;;0.00;0.00;;;;;;;;;;4966103;28;20445;-72
2023/08/30 00:12:32;;;;;;;0.05;0.05;;;;;;;;;;4947696;28;20243;-68
2023/08/30 00:15:00;;;;;;;0.40;0.40;;;;;;;;;;4951200;28;20134;-68
2023/08/30 00:17:27;;;;;;;0.40;0.10;;;;;;;;;;4945946;28;20070;-68
2023/08/30 00:19:55;;;;;;;0.15;0.15;;;;;;;;;;4965478;28;20075;-71
2023/08/30 00:22:23;;;;;;;0.00;0.00;;;;;;;;;;4959552;28;20054;-72
2023/08/30 00:24:51;;;;;;;0.00;0.00;;;;;;;;;;4961062;28;20161;-68
2023/08/30 00:27:20;;;;;;;0.55;0.40;;;;;;;;;;4958470;28;20070;-70
2023/08/30 00:29:47;;;;;;;0.00;0.00;;;;;;;;;;4960479;28;20059;-73
2023/08/30 00:32:15;;;;;;;2.55;2.45;;;;;;;;;;4959828;28;20058;-68
2023/08/30 00:34:43;;;;;;;0.03;0.03;;;;;;;;;;4965186;28;20054;-68
2023/08/30 00:37:10;;;;;;;0.00;0.00;;;;;;;;;;4949526;28;20054;-70
2023/08/30 00:39:38;;;;;;;20.58;19.17;;;;;;;;;;4964335;28;20482;-71
2023/08/30 00:42:07;;;;;;;0.00;0.00;;;;;;;;;;4946043;28;20523;-71
2023/08/30 00:44:35;;;;;;;0.00;0.00;;;;;;;;;;4964864;28;20481;-68
2023/08/30 00:47:03;;;;;;;0.00;0.00;;;;;;;;;;4959027;28;20509;-71
2023/08/30 00:49:31;;;;;;;0.00;0.00;;;;;;;;;;4948940;28;20050;-72
2023/08/30 00:52:03;;;;;;;0.00;0.00;;;;;;;;;;4964184;28;20375;-72
2023/08/30 00:54:31;;;;;;;0.25;0.25;;;;;;;;;;4955917;28;20046;-73
2023/08/30 00:57:01;;;;;;;0.00;0.00;;;;;;;;;;4954133;28;20063;-73
2023/08/30 00:59:30;;;;;;;0.00;0.00;;;;;;;;;;4958724;28;20061;-73
2023/08/30 01:01:58;;;;;;;0.08;0.08;;;;;;;;;;4976248;28;20192;-70
2023/08/30 01:04:25;;;;;;;10.75;10.05;;;;;;;;;;4961250;28;20082;-70
2023/08/30 01:06:53;;;;;;;0.05;0.05;;;;;;;;;;4968806;28;20039;-72
2023/08/30 01:09:21;;;;;;;0.00;0.00;;;;;;;;;;4952855;28;20050;-69
2023/08/30 01:11:52;;;;;;;50.55;47.70;;;;;;;;;;4965981;28;20051;-69
2023/08/30 01:14:25;;;;;;;0.00;0.00;;;;;;;;;;4953940;28;20492;-69
2023/08/30 01:16:53;;;;;;;0.00;0.00;;;;;;;;;;4965897;28;20043;-69
2023/08/30 01:19:47;;;;;;;0.00;0.00;;;;;;;;;;4965539;28;20051;-69
2023/08/30 01:22:30;;;;;;;0.00;0.00;;;;;;;;;;4947976;28;20053;-69
2023/08/30 01:24:57;;;;;;;;;;;;;;;;;;4955617;28;20109;-68
2023/08/30 01:27:25;;;;;;;56.70;53.10;;;;;;;;;;4967076;28;20102;-69
2023/08/30 01:29:54;;;;;;;0.00;0.00;;;;;;;;;;4960207;28;20233;-68
2023/08/30 01:32:25;;;;;;;27.58;26.08;;;;;;;;;;4960950;28;20051;-74
2023/08/30 01:34:53;;;;;;;13.93;13.20;;;;;;;;;;4963421;28;20517;-68
2023/08/30 01:37:21;;;;;;;6.35;6.03;;;;;;;;;;4963661;28;20556;-69
2023/08/30 01:39:50;;;;;;;0.52;0.52;;;;;;;;;;4962060;28;20039;-68
2023/08/30 01:42:21;;;;;;;34.28;32.22;;;;;;;;;;4964368;28;20050;-71
2023/08/30 01:44:49;;;;;;;;;;;;;;;;;;4963603;28;20514;-68
2023/08/30 01:47:17;;;;;;;11.40;10.85;;;;;;;;;;4951167;28;20493;-70
2023/08/30 01:49:45;;;;;;;0.10;0.10;;;;;;;;;;4955824;28;20062;-70
2023/08/30 01:52:13;;;;;;;33.65;31.80;;;;;;;;;;4974037;28;20055;-70
2023/08/30 01:54:41;;;;;;;0.45;0.45;;;;;;;;;;4959041;28;20047;-73
2023/08/30 01:57:09;;;;;;;9.93;9.38;;;;;;;;;;4955750;28;20105;-71
2023/08/30 01:59:36;;;;;;;0.00;0.00;;;;;;;;;;4956004;28;21217;-68
2023/08/30 02:02:04;;;;;;;18.10;17.08;;;;;;;;;;4962177;28;20046;-69
2023/08/30 02:04:32;;;;;;;0.00;0.00;;;;;;;;;;4962110;28;20422;-68
2023/08/30 02:07:02;;;;;;;3.72;3.53;;;;;;;;;;4962799;28;20468;-73
2023/08/30 02:09:39;;;;;;;0.00;0.00;;;;;;;;;;4963860;28;20078;-69
2023/08/30 02:12:13;;;;;;;0.77;0.77;;;;;;;;;;4957064;28;20047;-68
2023/08/30 02:14:40;;;;;;;;;;;;;;;;;;4959892;28;20063;-72
2023/08/30 02:17:08;;;;;;;18.23;17.20;;;;;;;;;;4960562;28;19925;-69
2023/08/30 02:19:35;;;;;;;0.10;0.10;;;;;;;;;;4962469;28;20051;-71
2023/08/30 02:22:03;;;;;;;42.10;39.72;;;;;;;;;;4958561;28;20125;-72
2023/08/30 02:24:31;;;;;;;0.13;0.13;;;;;;;;;;4964342;28;20047;-71
2023/08/30 02:26:58;;;;;;;0.10;0.10;;;;;;;;;;4949710;28;20055;-68
2023/08/30 02:29:26;;;;;;;0.03;0.03;;;;;;;;;;4955631;28;20125;-69
2023/08/30 02:31:54;;;;;;;0.00;0.00;;;;;;;;;;4962481;28;20074;-68
2023/08/30 02:34:22;;;;;;;50.10;47.28;;;;;;;;;;4967214;28;20476;-70
2023/08/30 02:36:49;;;;;;;0.00;0.00;;;;;;;;;;4960911;28;20070;-73
2023/08/30 02:39:17;;;;;;;21.63;20.17;;;;;;;;;;4963331;28;20445;-68
2023/08/30 02:41:44;;;;;;;0.10;0.10;;;;;;;;;;4963894;28;20520;-68
2023/08/30 02:44:12;;;;;;;0.00;0.00;;;;;;;;;;4960629;28;20055;-69
2023/08/30 02:46:42;;;;;;;3.47;3.25;;;;;;;;;;4950274;28;20062;-72
2023/08/30 02:49:11;;;;;;;1.10;0.30;;;;;;;;;;4965870;28;20058;-68
2023/08/30 02:51:38;;;;;;;0.60;0.15;;;;;;;;;;4959493;28;20461;-70
2023/08/30 02:54:06;;;;;;;0.10;0.10;;;;;;;;;;4959770;28;20236;-71
2023/08/30 02:56:34;;;;;;;0.00;0.00;;;;;;;;;;4966715;28;20055;-68
2023/08/30 02:59:01;;;;;;;0.00;0.00;;;;;;;;;;4949133;28;20045;-69
2023/08/30 03:01:29;;;;;;;0.30;0.30;;;;;;;;;;4962846;28;20054;-66
2023/08/30 03:03:57;;;;;;;0.10;0.10;;;;;;;;;;4956561;28;20042;-69
2023/08/30 03:06:24;;;;;;;0.00;0.00;;;;;;;;;;4948142;28;20137;-69
2023/08/30 03:08:54;;;;;;;0.10;0.10;;;;;;;;;;4958112;28;20157;-67
2023/08/30 03:11:23;;;;;;;0.00;0.00;;;;;;;;;;4963375;28;20078;-66
2023/08/30 03:13:53;;;;;;;0.00;0.00;;;;;;;;;;4955949;28;20498;-66
2023/08/30 03:16:21;;;;;;;55.38;51.83;;;;;;;;;;4951524;28;20051;-67
2023/08/30 03:18:49;;;;;;;3.42;3.30;;;;;;;;;;4960125;28;20165;-66
2023/08/30 03:21:16;;;;;;;0.00;0.00;;;;;;;;;;4957387;28;20067;-68
2023/08/30 03:23:44;;;;;;;0.05;0.05;;;;;;;;;;4961097;28;20054;-70
2023/08/30 03:26:12;;;;;;;0.00;0.00;;;;;;;;;;4966385;28;20062;-69
2023/08/30 03:28:40;;;;;;;7.78;5.60;;;;;;;;;;4950205;28;20051;-68
2023/08/30 03:31:12;;;;;;;2.95;2.75;;;;;;;;;;4959900;28;20155;-70
2023/08/30 03:33:43;;;;;;;0.00;0.00;;;;;;;;;;4950420;28;20042;-70
2023/08/30 03:36:14;;;;;;;0.00;0.00;;;;;;;;;;4971560;28;20061;-70
2023/08/30 03:38:42;;;;;;;0.00;0.00;;;;;;;;;;4967059;28;20130;-67
2023/08/30 03:41:10;;;;;;;3.03;2.38;;;;;;;;;;4954028;28;20134;-68
2023/08/30 03:43:38;;;;;;;0.00;0.00;;;;;;;;;;4948336;28;20162;-67
2023/08/30 03:46:09;;;;;;;0.00;0.00;;;;;;;;;;4959190;28;20099;-69
2023/08/30 03:48:37;;;;;;;0.00;0.00;;;;;;;;;;4951015;28;20050;-67
2023/08/30 03:51:04;;;;;;;8.57;8.18;;;;;;;;;;4957659;28;20570;-70
2023/08/30 03:53:33;;;;;;;0.00;0.00;;;;;;;;;;4965235;28;20053;-68
2023/08/30 03:56:00;;;;;;;0.00;0.00;;;;;;;;;;4960061;28;20075;-67
2023/08/30 03:58:28;;;;;;;8.80;8.10;;;;;;;;;;4963516;28;20050;-69
2023/08/30 04:00:57;;;;;;;15.05;14.13;;;;;;;;;;4959540;28;20047;-68
2023/08/30 04:03:25;;;;;;;1.20;0.22;;;;;;;;;;4953376;28;20134;-68
2023/08/30 04:05:59;;;;;;;0.45;0.45;;;;;;;;;;4960825;28;20043;-71
2023/08/30 04:08:26;;;;;;;0.00;0.00;;;;;;;;;;4956843;28;20054;-67
2023/08/30 04:10:54;;;;;;;8.05;7.55;;;;;;;;;;4947017;28;20138;-68
2023/08/30 04:13:23;;;;;;;0.00;0.00;;;;;;;;;;4950485;28;20048;-68
2023/08/30 04:15:51;;;;;;;0.00;0.00;;;;;;;;;;4958068;28;20054;-67
2023/08/30 04:18:19;;;;;;;30.10;28.27;;;;;;;;;;4963314;28;20497;-72
2023/08/30 04:20:47;;;;;;;31.42;29.08;;;;;;;;;;4959991;28;20566;-67
2023/08/30 04:23:15;;;;;;;0.00;0.00;;;;;;;;;;4961328;28;20118;-67
2023/08/30 04:25:44;;;;;;;0.00;0.00;;;;;;;;;;4959021;28;20438;-67
2023/08/30 04:28:12;;;;;;;0.10;0.10;;;;;;;;;;4957258;28;20051;-71
2023/08/30 04:30:40;;;;;;;0.30;0.30;;;;;;;;;;4958651;28;20310;-71
2023/08/30 04:33:08;;;;;;;8.55;8.07;;;;;;;;;;4955142;28;20540;-72
2023/08/30 04:35:37;;;;;;;0.38;0.30;;;;;;;;;;4960058;28;20051;-71
2023/08/30 04:38:04;;;;;;;3.65;3.50;;;;;;;;;;4966442;28;20051;-71
2023/08/30 04:40:32;;;;;;;0.00;0.00;;;;;;;;;;4961992;28;20512;-67
2023/08/30 04:43:02;;;;;;;0.10;0.10;;;;;;;;;;4954386;28;20053;-67
2023/08/30 04:45:29;;;;;;;0.00;0.00;;;;;;;;;;4958687;28;20039;-70
2023/08/30 04:47:57;;;;;;;0.00;0.00;;;;;;;;;;4950119;28;20462;-70
2023/08/30 04:50:26;;;;;;;0.32;0.32;;;;;;;;;;4951840;28;20599;-68
2023/08/30 04:52:54;;;;;;;0.70;0.63;;;;;;;;;;4962374;28;20417;-70
2023/08/30 04:55:28;;;;;;;6.05;5.72;;;;;;;;;;4968154;28;20383;-67
2023/08/30 04:57:58;;;;;;;0.00;0.00;;;;;;;;;;4966803;28;20050;-67
2023/08/30 05:00:31;;;;;;;0.00;0.00;;;;;;;;;;4955218;28;20046;-70
2023/08/30 05:02:59;;;;;;;2.15;2.05;;;;;;;;;;4953848;28;20085;-68
2023/08/30 05:05:27;;;;;;;5.00;4.75;;;;;;;;;;4970561;28;20047;-66
2023/08/30 05:07:58;;;;;;;17.80;16.65;;;;;;;;;;4939859;28;20047;-67
2023/08/30 05:10:26;;;;;;;0.08;0.08;;;;;;;;;;4962864;28;20069;-72
2023/08/30 05:12:55;;;;;;;0.00;0.00;;;;;;;;;;4936923;28;20337;-68
2023/08/30 05:15:22;;;;;;;0.00;0.00;;;;;;;;;;4951507;28;20051;-70
2023/08/30 05:17:50;;;;;;;1.83;1.35;;;;;;;;;;4952732;28;20085;-69
2023/08/30 05:20:18;;;;;;;0.65;0.65;;;;;;;;;;4951231;28;20047;-68
2023/08/30 05:22:46;;;;;;;0.00;0.00;;;;;;;;;;4949360;28;20642;-73
2023/08/30 05:25:14;;;;;;;0.17;0.17;;;;;;;;;;4941318;28;20125;-70
2023/08/30 05:27:42;;;;;;;0.00;0.00;;;;;;;;;;4948754;28;20055;-68
2023/08/30 05:30:10;;;;;;;5.78;5.47;;;;;;;;;;4956020;28;20054;-68
2023/08/30 05:32:40;;;;;;;2.08;1.98;;;;;;;;;;4947117;28;20051;-72
2023/08/30 05:35:26;;;;;;;0.15;0.15;;;;;;;;;;4940142;28;20055;-70
2023/08/30 05:37:53;;;;;;;57.00;53.60;;;;;;;;;;4957228;28;20047;-72
2023/08/30 05:40:31;;;;;;;6.07;5.78;;;;;;;;;;4957193;28;20065;-73
2023/08/30 05:42:59;;;;;;;0.00;0.00;;;;;;;;;;4946650;28;20047;-68
2023/08/30 05:45:27;;;;;;;0.00;0.00;;;;;;;;;;4953472;28;20055;-72
2023/08/30 05:47:54;;;;;;;7.75;7.10;;;;;;;;;;4946681;28;20065;-71
2023/08/30 05:50:22;;;;;;;0.00;0.00;;;;;;;;;;4944725;28;20055;-71
2023/08/30 05:52:51;;;;;;;0.32;0.20;;;;;;;;;;4946321;28;20528;-68
2023/08/30 05:55:19;;;;;;;0.00;0.00;;;;;;;;;;4946665;28;20406;-72
2023/08/30 05:57:47;;;;;;;0.00;0.00;;;;;;;;;;4952198;28;20051;-75
2023/08/30 06:00:14;;;;;;;7.22;6.82;;;;;;;;;;4955246;28;20043;-73
2023/08/30 06:02:42;;;;;;;1.35;1.30;;;;;;;;;;4948191;28;20817;-68
2023/08/30 06:05:10;;;;;;;46.55;43.05;;;;;;;;;;4949622;28;20066;-70
2023/08/30 06:07:37;;;;;;;0.10;0.10;;;;;;;;;;4963773;28;20420;-69
2023/08/30 06:10:05;;;;;;;0.10;0.10;;;;;;;;;;4958825;28;20067;-71
2023/08/30 06:12:32;;;;;;;6.38;5.80;;;;;;;;;;4960881;28;20573;-68
2023/08/30 06:14:59;;;;;;;13.95;12.95;;;;;;;;;;4949881;28;20087;-67
2023/08/30 06:17:27;;;;;;;6.93;6.50;;;;;;;;;;4965189;28;20405;-69
2023/08/30 06:19:55;;;;;;;18.70;17.45;;;;;;;;;;4955640;28;20055;-69
2023/08/30 06:22:22;;;;;;;0.17;0.17;;;;;;;;;;4951756;28;20560;-72
2023/08/30 06:24:49;;;;;;;31.27;29.00;;;;;;;;;;4955376;28;20063;-69
2023/08/30 06:27:17;;;;;;;17.75;16.85;;;;;;;;;;4947750;28;20055;-69
2023/08/30 06:29:44;;;;;;;0.00;0.00;;;;;;;;;;4960672;28;20062;-69
2023/08/30 06:32:12;;;;;;;0.00;0.00;;;;;;;;;;4961397;28;20048;-69
2023/08/30 06:34:40;;;;;;;0.00;0.00;;;;;;;;;;4964008;28;20523;-70
2023/08/30 06:37:07;;;;;;;0.90;0.90;;;;;;;;;;4964485;28;20050;-69
2023/08/30 06:39:36;;;;;;;127.75;119.57;;;;;;;;;;4964151;28;20068;-73
2023/08/30 06:42:04;;;;;;;0.00;0.00;;;;;;;;;;4963173;28;20102;-70
2023/08/30 06:44:31;;;;;;;3.90;3.72;;;;;;;;;;4963138;28;20790;-69
2023/08/30 06:47:00;;;;;;;0.20;0.13;;;;;;;;;;4964734;28;20389;-68
2023/08/30 06:49:31;;;;;;;3.42;3.30;;;;;;;;;;4959793;28;20043;-71
2023/08/30 06:52:01;;;;;;;0.00;0.00;;;;;;;;;;4958027;28;20505;-69
2023/08/30 06:54:30;;;;;;;46.97;43.97;;;;;;;;;;4962527;28;20047;-69
2023/08/30 07:00:39;;;;;;;1.58;1.58;;;;;;;;;;4952139;28;20399;-86
2023/08/30 07:03:56;;;;;;;2.67;2.55;;;;;;;;;;4928495;29;20050;-86
2023/08/30 07:06:29;;;;;;;0.35;0.35;;;;;;;;;;4955650;28;20119;-85
2023/08/30 07:09:04;;;;;;;8.05;7.57;;;;;;;;;;4924882;29;20104;-85
2023/08/30 07:11:57;;;;;;;0.00;0.00;;;;;;;;;;4956154;28;20103;-84
2023/08/30 07:14:32;;;;;;;1.40;1.40;;;;;;;;;;4928819;29;20490;-85
2023/08/30 07:17:10;;;;;;;7.55;6.93;;;;;;;;;;4930596;29;20120;-85
2023/08/30 07:19:39;;;;;;;3.72;3.53;;;;;;;;;;4930278;29;20131;-84
2023/08/30 07:22:06;;;;;;;0.20;0.20;;;;;;;;;;4915481;29;20048;-87
2023/08/30 07:24:34;;;;;;;14.15;13.35;;;;;;;;;;4941289;28;20043;-86
2023/08/30 07:27:01;;;;;;;0.10;0.10;;;;;;;;;;4944223;28;20518;-87
2023/08/30 07:29:29;;;;;;;0.10;0.10;;;;;;;;;;4954050;29;20047;-88
2023/08/30 07:31:56;;;;;;;3.97;3.83;;;;;;;;;;4953085;28;20047;-87
2023/08/30 07:34:24;;;;;;;0.10;0.10;;;;;;;;;;4952200;29;20047;-88
2023/08/30 07:36:55;;;;;;;5.72;5.30;;;;;;;;;;4952800;28;20071;-89
2023/08/30 07:39:24;;;;;;;0.10;0.10;;;;;;;;;;4951626;29;20444;-87
2023/08/30 07:41:51;;;;;;;0.30;0.30;;;;;;;;;;4963470;28;20039;-88
2023/08/30 07:44:20;;;;;;;36.53;34.42;;;;;;;;;;4965153;28;20034;-88
2023/08/30 07:46:48;;;;;;;8.25;7.82;;;;;;;;;;4971774;28;20105;-88
2023/08/30 07:49:16;;;;;;;14.50;13.60;;;;;;;;;;4966790;28;20387;-88
2023/08/30 07:51:43;;;;;;;26.17;24.13;;;;;;;;;;4968135;28;20047;-88
2023/08/30 07:54:10;;;;;;;55.80;51.70;;;;;;;;;;4971371;28;20043;-90
2023/08/30 07:56:38;;;;;;;0.03;0.03;;;;;;;;;;4960618;28;20043;-89
2023/08/30 07:59:05;;;;;;;0.00;0.00;;;;;;;;;;4963617;28;20056;-90
2023/08/30 08:01:33;;;;;;;19.25;18.23;;;;;;;;;;4959804;28;20062;-89
2023/08/30 08:04:00;;;;;;;35.90;33.70;;;;;;;;;;4955942;28;20126;-90
2023/08/30 08:06:34;;;;;;;75.75;69.70;;;;;;;;;;4954936;28;20541;-89
2023/08/30 08:09:05;;;;;;;1.45;1.45;;;;;;;;;;4965885;28;20074;-88
2023/08/30 08:11:32;;;;;;;3.05;2.88;;;;;;;;;;4973488;28;20058;-89
2023/08/30 08:14:00;;;;;;;0.00;0.00;;;;;;;;;;4972829;28;20049;-89
2023/08/30 08:16:29;;;;;;;12.13;11.43;;;;;;;;;;4975776;28;20163;-89
2023/08/30 08:18:59;;;;;;;55.28;50.42;;;;;;;;;;4968444;28;20569;-89
2023/08/30 08:21:34;;;;;;;0.28;0.28;;;;;;;;;;4969720;28;20503;-91
2023/08/30 08:24:03;;;;;;;51.65;48.60;;;;;;;;;;4966956;28;20678;-89
2023/08/30 08:26:31;;;;;;;0.00;0.00;;;;;;;;;;4971713;28;20058;-89
2023/08/30 08:28:59;;;;;;;6.30;5.97;;;;;;;;;;4974615;28;20035;-89
2023/08/30 08:31:27;;;;;;;0.03;0.03;;;;;;;;;;4966259;28;20051;-89
2023/08/30 08:34:10;;;;;;;0.10;0.10;;;;;;;;;;4955931;28;20054;-90
2023/08/30 08:36:39;;;;;;;9.75;8.88;;;;;;;;;;4960887;28;20404;-89
2023/08/30 08:39:09;;;;;;;0.00;0.00;;;;;;;;;;4967774;28;20047;-89
2023/08/30 08:41:48;;;;;;;0.65;0.65;;;;;;;;;;4968832;28;20043;-89
2023/08/30 08:44:16;;;;;;;0.00;0.00;;;;;;;;;;4949628;29;20110;-89
2023/08/30 08:46:47;;;;;;;0.00;0.00;;;;;;;;;;4968961;28;20046;-90
2023/08/30 08:49:17;;;;;;;53.92;50.50;;;;;;;;;;4959432;28;20043;-89
2023/08/30 08:51:45;;;;;;;0.00;0.00;;;;;;;;;;4999941;23;20147;-72
2023/08/30 08:54:16;;;;;;;10.27;9.45;;;;;;;;;;4949354;28;20524;-74
2023/08/30 08:56:44;;;;;;;0.00;0.00;;;;;;;;;;4941064;29;20044;-75
2023/08/30 08:59:11;;;;;;;38.85;36.20;;;;;;;;;;4948961;29;20048;-74
2023/08/30 09:01:42;;;;;;;6.00;5.68;;;;;;;;;;4945642;28;20457;-74
2023/08/30 09:04:11;;;;;;;0.10;0.10;;;;;;;;;;4938824;29;20122;-77
2023/08/30 09:06:40;;;;;;;0.10;0.10;;;;;;;;;;4934007;29;20161;-74
2023/08/30 09:09:08;;;;;;;10.10;9.55;;;;;;;;;;4938761;29;20109;-73
2023/08/30 09:11:36;;;;;;;0.10;0.10;;;;;;;;;;4941023;29;20519;-73
2023/08/30 09:14:18;;;;;;;0.08;0.08;;;;;;;;;;4934257;29;20135;-79
2023/08/30 09:16:58;;;;;;;29.85;27.63;;;;;;;;;;4933550;29;20047;-74
2023/08/30 09:19:26;;;;;;;0.00;0.00;;;;;;;;;;4932531;29;20040;-74
2023/08/30 09:21:53;;;;;;;0.10;0.10;;;;;;;;;;4932291;28;20099;-76
2023/08/30 09:24:21;;;;;;;0.00;0.00;;;;;;;;;;4929310;29;20471;-73
2023/08/30 09:26:52;;;;;;;0.47;0.45;;;;;;;;;;4931605;29;20059;-73
2023/08/30 09:29:21;;;;;;;0.00;0.00;;;;;;;;;;4929917;29;20090;-76
2023/08/30 09:31:51;;;;;;;0.00;0.00;;;;;;;;;;4934259;28;20142;-76
2023/08/30 09:34:22;;;;;;;0.00;0.00;;;;;;;;;;4929321;29;20143;-75
2023/08/30 09:36:50;;;;;;;0.00;0.00;;;;;;;;;;4932274;29;20050;-75
2023/08/30 09:39:17;;;;;;;0.00;0.00;;;;;;;;;;4936443;28;20058;-72
2023/08/30 09:41:49;;;;;;;46.08;43.25;;;;;;;;;;4946078;28;20055;-72
2023/08/30 09:44:16;;;;;;;;;;;;;;;;;;4944212;29;20533;-72
2023/08/30 09:46:45;;;;;;;5.72;5.43;;;;;;;;;;4939144;29;19926;-72
2023/08/30 09:49:22;;;;;;;2.33;2.22;;;;;;;;;;4940076;29;20058;-72
2023/08/30 09:51:51;;;;;;;0.10;0.10;;;;;;;;;;4934898;28;20138;-72
2023/08/30 09:54:24;;;;;;;38.00;35.65;;;;;;;;;;4928761;29;20050;-72
2023/08/30 09:56:57;;;;;;;6.78;6.30;;;;;;;;;;4929048;29;20052;-72
2023/08/30 09:59:25;;;;;;;11.13;10.43;;;;;;;;;;4937142;29;20051;-74
2023/08/30 10:01:53;;;;;;;0.08;0.08;;;;;;;;;;4935184;28;20521;-72
2023/08/30 10:04:21;;;;;;;1.77;1.75;;;;;;;;;;4944667;29;20206;-73
2023/08/30 10:06:49;;;;;;;0.20;0.20;;;;;;;;;;4937011;29;20490;-73
2023/08/30 10:09:17;;;;;;;0.08;0.08;;;;;;;;;;4945964;29;22608;-73
2023/08/30 10:11:49;;;;;;;6.50;6.13;;;;;;;;;;4933434;28;20052;-73
2023/08/30 10:14:17;;;;;;;0.20;0.20;;;;;;;;;;4930004;29;20387;-73
2023/08/30 10:16:45;;;;;;;0.00;0.00;;;;;;;;;;4938530;29;20101;-73
2023/08/30 10:19:17;;;;;;;0.10;0.10;;;;;;;;;;4931146;29;20131;-73
2023/08/30 10:21:45;;;;;;;0.05;0.05;;;;;;;;;;4939211;28;20044;-75
2023/08/30 10:24:15;;;;;;;14.98;14.18;;;;;;;;;;4931642;28;20398;-73
2023/08/30 10:27:00;;;;;;;0.00;0.00;;;;;;;;;;4936253;28;20044;-73
2023/08/30 10:29:29;;;;;;;0.10;0.10;;;;;;;;;;4937558;28;20672;-73
2023/08/30 10:31:56;;;;;;;17.85;16.10;;;;;;;;;;4927424;29;20052;-76
2023/08/30 10:34:25;;;;;;;0.08;0.08;;;;;;;;;;4931455;29;20118;-74
2023/08/30 10:37:02;;;;;;;3.30;3.05;;;;;;;;;;4929796;29;20055;-76
2023/08/30 10:39:39;;;;;;;0.40;0.40;;;;;;;;;;4941410;28;20655;-73
2023/08/30 10:42:09;;;;;;;9.25;8.57;;;;;;;;;;4924176;29;20055;-75
2023/08/30 10:44:49;;;;;;;16.15;15.25;;;;;;;;;;4927583;29;20063;-74
2023/08/30 10:47:37;;;;;;;0.08;0.08;;;;;;;;;;4931278;29;20051;-74
2023/08/30 10:50:07;;;;;;;0.00;0.00;;;;;;;;;;4938258;28;20488;-74
2023/08/30 10:52:35;;;;;;;0.00;0.00;;;;;;;;;;4933200;29;20090;-71
2023/08/30 10:55:06;;;;;;;0.00;0.00;;;;;;;;;;4932875;29;20067;-76
2023/08/30 10:57:34;;;;;;;0.10;0.10;;;;;;;;;;4937145;28;20047;-73
2023/08/30 11:00:07;;;;;;;0.10;0.10;;;;;;;;;;4931545;29;20052;-73
2023/08/30 11:02:35;;;;;;;0.00;0.00;;;;;;;;;;4936291;29;20098;-73
2023/08/30 11:05:03;;;;;;;3.80;3.60;;;;;;;;;;4933097;29;20548;-72
2023/08/30 11:07:31;;;;;;;0.65;0.65;;;;;;;;;;4922024;29;20056;-74
2023/08/30 11:09:59;;;;;;;0.73;0.73;;;;;;;;;;4936384;29;20577;-73
2023/08/30 11:12:27;;;;;;;2.70;2.55;;;;;;;;;;4934048;29;20047;-74
2023/08/30 11:14:54;;;;;;;0.10;0.10;;;;;;;;;;4937115;29;20106;-75
2023/08/30 11:17:22;;;;;;;49.50;46.03;;;;;;;;;;4934174;29;20573;-74
2023/08/30 11:19:51;;;;;;;0.00;0.00;;;;;;;;;;4936060;28;20047;-71
2023/08/30 11:22:18;;;;;;;0.00;0.00;;;;;;;;;;4931637;29;20497;-72
2023/08/30 11:24:48;;;;;;;0.00;0.00;;;;;;;;;;4937537;29;20396;-72
2023/08/30 11:27:19;;;;;;;0.00;0.00;;;;;;;;;;4932441;28;20567;-72
2023/08/30 11:29:46;;;;;;;1.88;1.85;;;;;;;;;;4927770;29;20051;-72
2023/08/30 11:32:14;;;;;;;14.40;13.52;;;;;;;;;;4932248;29;20054;-72
2023/08/30 11:34:41;;;;;;;12.25;11.60;;;;;;;;;;4932963;29;20958;-74
2023/08/30 11:37:09;;;;;;;0.10;0.10;;;;;;;;;;4938026;28;20091;-72
2023/08/30 11:39:36;;;;;;;0.00;0.00;;;;;;;;;;4926256;29;20050;-75
2023/08/30 11:42:06;;;;;;;0.10;0.10;;;;;;;;;;4931781;29;20112;-73
2023/08/30 11:44:45;;;;;;;0.20;0.20;;;;;;;;;;4932188;29;20411;-72
2023/08/30 11:47:26;;;;;;;0.00;0.00;;;;;;;;;;4936722;29;20055;-72
2023/08/30 11:49:55;;;;;;;2.33;2.22;;;;;;;;;;4934800;28;20055;-73
2023/08/30 11:52:23;;;;;;;3.50;3.30;;;;;;;;;;4934570;29;20055;-72
2023/08/30 11:54:52;;;;;;;25.02;22.95;;;;;;;;;;4938302;28;20048;-73
2023/08/30 11:57:20;;;;;;;0.32;0.32;;;;;;;;;;4940999;29;20553;-72
2023/08/30 11:59:49;;;;;;;51.90;47.33;;;;;;;;;;4940562;28;20046;-73
2023/08/30 12:02:18;;;;;;;6.10;5.80;;;;;;;;;;4954091;28;20047;-73
2023/08/30 12:04:46;;;;;;;0.10;0.10;;;;;;;;;;4928398;29;20445;-73
2023/08/30 12:07:24;;;;;;;2.17;2.05;;;;;;;;;;4941188;28;20073;-74
2023/08/30 12:09:51;;;;;;;0.35;0.35;;;;;;;;;;4924393;29;20039;-72
2023/08/30 12:12:19;;;;;;;2.65;2.55;;;;;;;;;;4929830;29;20047;-72
2023/08/30 12:14:55;;;;;;;35.65;33.47;;;;;;;;;;4941864;29;20055;-72
2023/08/30 12:17:23;;;;;;;0.03;0.03;;;;;;;;;;4935866;28;20077;-73
2023/08/30 12:19:57;;;;;;;4.60;4.40;;;;;;;;;;4930439;29;20047;-74
2023/08/30 12:22:36;;;;;;;0.38;0.38;;;;;;;;;;4929716;29;20180;-72
2023/08/30 12:25:03;;;;;;;0.00;0.00;;;;;;;;;;4927494;29;20047;-73
2023/08/30 12:27:31;;;;;;;175.13;162.35;;;;;;;;;;4929491;29;20058;-72
2023/08/30 12:29:58;;;;;;;49.88;45.78;;;;;;;;;;4934353;28;20531;-73
2023/08/30 12:32:26;;;;;;;0.10;0.10;;;;;;;;;;4934929;29;20509;-74
2023/08/30 12:34:53;;;;;;;0.00;0.00;;;;;;;;;;4936951;29;20068;-74
2023/08/30 12:37:21;;;;;;;0.30;0.30;;;;;;;;;;4932478;29;20580;-73
2023/08/30 12:39:48;;;;;;;0.00;0.00;;;;;;;;;;4930625;29;20047;-74
2023/08/30 12:42:15;;;;;;;38.05;36.03;;;;;;;;;;4929000;29;20110;-73
2023/08/30 12:44:43;;;;;;;0.00;0.00;;;;;;;;;;4928339;29;20051;-73
2023/08/30 12:47:13;;;;;;;0.00;0.00;;;;;;;;;;4928272;29;20062;-73
2023/08/30 12:49:41;;;;;;;0.10;0.10;;;;;;;;;;4927067;29;20066;-74
2023/08/30 12:52:08;;;;;;;5.85;5.57;;;;;;;;;;4927397;29;20489;-74
2023/08/30 12:54:36;;;;;;;1.35;1.35;;;;;;;;;;4934209;29;20063;-73
2023/08/30 12:57:03;;;;;;;0.00;0.00;;;;;;;;;;4963888;23;20463;-68
2023/08/30 12:59:31;;;;;;;0.10;0.10;;;;;;;;;;4967722;28;20085;-68
2023/08/30 13:01:59;;;;;;;7.60;7.20;;;;;;;;;;4957974;28;20047;-68
2023/08/30 13:04:27;;;;;;;0.10;0.10;;;;;;;;;;4949497;28;20513;-68
2023/08/30 13:06:55;;;;;;;9.00;8.57;;;;;;;;;;4952537;28;20094;-68
2023/08/30 13:09:22;;;;;;;0.00;0.00;;;;;;;;;;4958892;28;20486;-68
2023/08/30 13:11:50;;;;;;;0.00;0.00;;;;;;;;;;4955286;28;20059;-67
2023/08/30 13:14:17;;;;;;;0.00;0.00;;;;;;;;;;4944884;28;20083;-67
2023/08/30 13:16:44;;;;;;;0.00;0.00;;;;;;;;;;4946046;28;20050;-67
2023/08/30 13:19:12;;;;;;;0.22;0.22;;;;;;;;;;4944255;28;20051;-67
2023/08/30 13:21:39;;;;;;;2.22;2.13;;;;;;;;;;4948608;28;20043;-67
2023/08/30 13:24:08;;;;;;;0.00;0.00;;;;;;;;;;4947335;28;20853;-67
2023/08/30 13:26:35;;;;;;;0.00;0.00;;;;;;;;;;4940137;28;20114;-67
2023/08/30 13:29:03;;;;;;;0.00;0.00;;;;;;;;;;4949489;28;20056;-67
2023/08/30 13:31:30;;;;;;;0.08;0.08;;;;;;;;;;4957427;28;20063;-68
2023/08/30 13:33:59;;;;;;;11.25;10.55;;;;;;;;;;4957489;28;20051;-69
2023/08/30 13:36:26;;;;;;;0.00;0.00;;;;;;;;;;4951577;28;20055;-67
2023/08/30 13:38:56;;;;;;;26.52;24.67;;;;;;;;;;4949865;28;20043;-67
2023/08/30 13:41:23;;;;;;;0.10;0.10;;;;;;;;;;4948563;28;20446;-68
2023/08/30 13:43:51;;;;;;;0.10;0.10;;;;;;;;;;4954481;28;20055;-68
2023/08/30 13:46:18;;;;;;;0.00;0.00;;;;;;;;;;4951893;28;20098;-68
2023/08/30 13:48:47;;;;;;;0.00;0.00;;;;;;;;;;4951543;28;20051;-68
2023/08/30 13:51:15;;;;;;;0.10;0.10;;;;;;;;;;4951888;28;20055;-68
2023/08/30 13:53:42;;;;;;;8.80;8.32;;;;;;;;;;4948323;28;20039;-68
2023/08/30 13:56:10;;;;;;;38.45;36.28;;;;;;;;;;4948032;28;20769;-67
2023/08/30 13:58:38;;;;;;;0.10;0.10;;;;;;;;;;4947423;28;20050;-68
2023/08/30 14:01:06;;;;;;;0.00;0.00;;;;;;;;;;4948354;28;20449;-68
2023/08/30 14:03:33;;;;;;;8.73;8.30;;;;;;;;;;4952791;28;20129;-68
2023/08/30 14:06:01;;;;;;;6.35;6.03;;;;;;;;;;4952528;28;20412;-68
2023/08/30 14:08:28;;;;;;;0.10;0.10;;;;;;;;;;4952344;28;20137;-68
2023/08/30 14:10:56;;;;;;;136.35;127.28;;;;;;;;;;4949984;28;20066;-67
2023/08/30 14:13:23;;;;;;;15.57;14.68;;;;;;;;;;4957156;28;20130;-68
2023/08/30 14:15:51;;;;;;;0.00;0.00;;;;;;;;;;4962855;28;20055;-68
2023/08/30 14:18:19;;;;;;;0.85;0.85;;;;;;;;;;4947386;28;20142;-68
2023/08/30 14:20:46;;;;;;;0.00;0.00;;;;;;;;;;4949414;28;20139;-68
2023/08/30 14:23:13;;;;;;;11.15;10.45;;;;;;;;;;4949412;28;20049;-68
2023/08/30 14:25:43;;;;;;;0.10;0.10;;;;;;;;;;4948352;28;20059;-67
2023/08/30 14:28:10;;;;;;;0.00;0.00;;;;;;;;;;4947980;28;20042;-68
2023/08/30 14:30:38;;;;;;;10.38;9.70;;;;;;;;;;4948338;28;20391;-67
2023/08/30 14:33:06;;;;;;;83.55;77.35;;;;;;;;;;4948697;28;20055;-67
2023/08/30 14:35:34;;;;;;;12.23;11.43;;;;;;;;;;4948434;28;20560;-68
2023/08/30 14:38:01;;;;;;;20.83;19.48;;;;;;;;;;4946449;28;20750;-68
2023/08/30 14:40:29;;;;;;;0.00;0.00;;;;;;;;;;4946184;28;20098;-67
2023/08/30 14:42:56;;;;;;;7.72;7.32;;;;;;;;;;4949929;28;20536;-67
2023/08/30 14:45:24;;;;;;;52.85;49.33;;;;;;;;;;4951022;28;20043;-67
2023/08/30 14:47:51;;;;;;;34.97;32.33;;;;;;;;;;4951704;28;20047;-68
2023/08/30 14:50:19;;;;;;;0.00;0.00;;;;;;;;;;4958603;28;20508;-67
2023/08/30 14:52:46;;;;;;;29.88;28.17;;;;;;;;;;4962225;28;20047;-67